Time;durP1;ratioP1;P1;durP2;ratioP2;P2;SDS_P1;SDS_P2;PMS_P1;PMS_P2;Temp;Humidity;BMP_temperature;BMP_pressure;BME280_temperature;BME280_humidity;BME280_pressure;Samples;Min_cycle;Max_cycle;Signal;HPM_P1;HPM_P2
2024/01/29 00:01:04;;;;;;;0.85;0.75;;;;;;;;;;5077177;28;20074;-76
2024/01/29 00:03:31;;;;;;;1.45;0.90;;;;;;;;;;5074723;28;20029;-77
2024/01/29 00:05:57;;;;;;;2.40;1.00;;;;;;;;;;5077668;28;20028;-76
2024/01/29 00:08:23;;;;;;;1.70;1.10;;;;;;;;;;5082160;28;20025;-75
2024/01/29 00:10:49;;;;;;;1.23;0.82;;;;;;;;;;5074722;28;20029;-77
2024/01/29 00:13:16;;;;;;;1.65;1.00;;;;;;;;;;5076275;28;20029;-75
2024/01/29 00:15:42;;;;;;;1.05;0.82;;;;;;;;;;5075773;28;20613;-76
2024/01/29 00:18:08;;;;;;;1.30;0.85;;;;;;;;;;5076536;28;20025;-76
2024/01/29 00:20:35;;;;;;;1.35;0.80;;;;;;;;;;5075325;28;20028;-76
2024/01/29 00:23:01;;;;;;;1.45;0.98;;;;;;;;;;5087375;28;20028;-75
2024/01/29 00:25:27;;;;;;;1.35;0.88;;;;;;;;;;5089599;28;20028;-76
2024/01/29 00:27:53;;;;;;;2.55;1.40;;;;;;;;;;5083500;28;20028;-76
2024/01/29 00:30:19;;;;;;;1.52;1.13;;;;;;;;;;5086665;28;20028;-77
2024/01/29 00:32:45;;;;;;;1.58;1.08;;;;;;;;;;5084917;28;20080;-76
2024/01/29 00:35:12;;;;;;;0.95;0.60;;;;;;;;;;5087603;28;20091;-77
2024/01/29 00:37:39;;;;;;;1.48;0.85;;;;;;;;;;5087370;28;20498;-76
2024/01/29 00:40:05;;;;;;;1.92;1.10;;;;;;;;;;5080604;28;20266;-77
2024/01/29 00:42:31;;;;;;;2.10;1.50;;;;;;;;;;5075624;28;20059;-77
2024/01/29 00:44:57;;;;;;;2.03;1.05;;;;;;;;;;5073622;28;20491;-76
2024/01/29 00:47:23;;;;;;;2.38;1.23;;;;;;;;;;5070981;28;20064;-76
2024/01/29 00:49:50;;;;;;;1.55;1.02;;;;;;;;;;5064489;28;20070;-75
2024/01/29 00:52:16;;;;;;;1.25;0.90;;;;;;;;;;5083117;28;20544;-77
2024/01/29 00:54:42;;;;;;;2.00;1.10;;;;;;;;;;5069743;28;20020;-77
2024/01/29 00:57:08;;;;;;;1.00;0.80;;;;;;;;;;5078900;28;20078;-76
2024/01/29 00:59:34;;;;;;;1.33;1.00;;;;;;;;;;5082278;28;20005;-76
2024/01/29 01:02:00;;;;;;;1.00;0.85;;;;;;;;;;5076727;28;20024;-76
2024/01/29 01:04:26;;;;;;;1.58;0.85;;;;;;;;;;5072562;28;20463;-76
2024/01/29 01:06:53;;;;;;;1.25;1.15;;;;;;;;;;5076175;28;20048;-76
2024/01/29 01:09:19;;;;;;;1.05;0.70;;;;;;;;;;5086909;28;20013;-75
2024/01/29 01:11:45;;;;;;;1.15;0.93;;;;;;;;;;5088369;28;20043;-77
2024/01/29 01:14:11;;;;;;;1.95;1.38;;;;;;;;;;5087090;28;20066;-77
2024/01/29 01:16:37;;;;;;;1.25;1.02;;;;;;;;;;5064722;28;20017;-75
2024/01/29 01:19:03;;;;;;;1.42;0.90;;;;;;;;;;5070121;28;20012;-77
2024/01/29 01:21:29;;;;;;;1.65;1.20;;;;;;;;;;5073780;28;20424;-76
2024/01/29 01:23:56;;;;;;;1.20;0.77;;;;;;;;;;5068340;28;20016;-75
2024/01/29 01:26:22;;;;;;;1.15;0.90;;;;;;;;;;5079769;28;20039;-76
2024/01/29 01:28:48;;;;;;;1.45;0.90;;;;;;;;;;5067060;28;20028;-76
2024/01/29 01:31:14;;;;;;;1.65;1.27;;;;;;;;;;5070488;28;20035;-78
2024/01/29 01:33:40;;;;;;;0.98;0.80;;;;;;;;;;5067322;28;20209;-76
2024/01/29 01:36:06;;;;;;;1.42;1.00;;;;;;;;;;5067363;28;20545;-76
2024/01/29 01:38:32;;;;;;;2.33;1.15;;;;;;;;;;5067170;28;20062;-78
2024/01/29 01:40:59;;;;;;;2.08;1.48;;;;;;;;;;5068161;28;20099;-76
2024/01/29 01:43:25;;;;;;;1.55;1.00;;;;;;;;;;5071085;28;20024;-76
2024/01/29 01:46:06;;;;;;;1.33;0.77;;;;;;;;;;5065522;28;20025;-76
2024/01/29 01:48:33;;;;;;;0.90;0.73;;;;;;;;;;5064755;28;20088;-76
2024/01/29 01:51:00;;;;;;;1.20;0.93;;;;;;;;;;5083243;28;20053;-75
2024/01/29 01:53:27;;;;;;;1.50;0.93;;;;;;;;;;5075046;28;20039;-76
2024/01/29 01:55:53;;;;;;;1.48;0.98;;;;;;;;;;5089882;28;20063;-76
2024/01/29 01:58:21;;;;;;;1.58;0.90;;;;;;;;;;5066998;28;20028;-75
2024/01/29 02:00:47;;;;;;;1.13;0.90;;;;;;;;;;5069344;28;20108;-76
2024/01/29 02:03:13;;;;;;;2.65;1.23;;;;;;;;;;5069879;28;20016;-77
2024/01/29 02:05:39;;;;;;;2.00;1.30;;;;;;;;;;5071313;28;20020;-76
2024/01/29 02:08:06;;;;;;;0.93;0.82;;;;;;;;;;5070700;28;20107;-76
2024/01/29 02:10:32;;;;;;;1.88;1.05;;;;;;;;;;5073594;28;20036;-77
2024/01/29 02:12:58;;;;;;;1.58;0.88;;;;;;;;;;5068549;28;20024;-76
2024/01/29 02:15:24;;;;;;;1.67;1.13;;;;;;;;;;5069377;28;20471;-75
2024/01/29 02:17:50;;;;;;;2.47;1.13;;;;;;;;;;5065394;28;20027;-76
2024/01/29 02:20:16;;;;;;;2.22;1.23;;;;;;;;;;5072870;28;20020;-75
2024/01/29 02:22:46;;;;;;;1.75;1.02;;;;;;;;;;5066407;28;20422;-76
2024/01/29 02:25:16;;;;;;;1.45;0.88;;;;;;;;;;5067149;28;20365;-76
2024/01/29 02:27:42;;;;;;;1.88;1.02;;;;;;;;;;5066850;28;20021;-75
2024/01/29 02:30:09;;;;;;;1.73;1.00;;;;;;;;;;5064235;28;20395;-75
2024/01/29 02:32:35;;;;;;;2.03;0.90;;;;;;;;;;5063323;28;20035;-75
2024/01/29 02:35:01;;;;;;;1.40;0.98;;;;;;;;;;5063896;28;20021;-76
2024/01/29 02:37:27;;;;;;;1.00;0.90;;;;;;;;;;5065768;28;20326;-76
2024/01/29 02:39:53;;;;;;;1.13;0.85;;;;;;;;;;5065545;28;20438;-76
2024/01/29 02:42:19;;;;;;;1.55;1.10;;;;;;;;;;5064815;28;20132;-75
2024/01/29 02:44:48;;;;;;;2.25;1.00;;;;;;;;;;5070499;28;20044;-75
2024/01/29 02:47:15;;;;;;;1.60;1.10;;;;;;;;;;5063670;28;20021;-76
2024/01/29 02:49:43;;;;;;;1.50;0.90;;;;;;;;;;5063330;28;20017;-76
2024/01/29 02:52:09;;;;;;;1.20;0.80;;;;;;;;;;5069221;28;20056;-76
2024/01/29 02:54:36;;;;;;;1.35;0.88;;;;;;;;;;5066183;28;20025;-75
2024/01/29 02:57:02;;;;;;;1.00;0.68;;;;;;;;;;5073879;28;20032;-77
2024/01/29 02:59:28;;;;;;;1.27;1.10;;;;;;;;;;5067045;28;20029;-75
2024/01/29 03:01:55;;;;;;;1.17;0.70;;;;;;;;;;5072281;28;20036;-76
2024/01/29 03:04:21;;;;;;;1.40;0.80;;;;;;;;;;5080507;28;20106;-76
2024/01/29 03:06:47;;;;;;;1.08;0.70;;;;;;;;;;5084222;28;20005;-75
2024/01/29 03:09:17;;;;;;;0.95;0.80;;;;;;;;;;5081978;28;20076;-74
2024/01/29 03:11:43;;;;;;;1.65;1.05;;;;;;;;;;5092244;28;20033;-76
2024/01/29 03:14:09;;;;;;;0.82;0.60;;;;;;;;;;5068061;28;20021;-76
2024/01/29 03:16:36;;;;;;;1.20;0.63;;;;;;;;;;5071840;28;20066;-75
2024/01/29 03:19:02;;;;;;;1.25;0.80;;;;;;;;;;5069383;28;20086;-77
2024/01/29 03:21:28;;;;;;;0.75;0.75;;;;;;;;;;5072455;28;20646;-76
2024/01/29 03:23:55;;;;;;;0.82;0.80;;;;;;;;;;5070908;28;20028;-75
2024/01/29 03:26:21;;;;;;;1.00;0.80;;;;;;;;;;5071626;28;20029;-77
2024/01/29 03:28:47;;;;;;;1.73;0.77;;;;;;;;;;5075050;28;20044;-75
2024/01/29 03:31:13;;;;;;;1.10;0.80;;;;;;;;;;5062989;28;20024;-75
2024/01/29 03:33:40;;;;;;;1.38;0.80;;;;;;;;;;5067208;28;20025;-75
2024/01/29 03:36:06;;;;;;;1.40;0.85;;;;;;;;;;5069661;28;20068;-75
2024/01/29 03:38:33;;;;;;;1.50;0.82;;;;;;;;;;5062961;28;20024;-75
2024/01/29 03:40:59;;;;;;;0.95;0.77;;;;;;;;;;5064002;28;20023;-75
2024/01/29 03:43:26;;;;;;;2.55;1.40;;;;;;;;;;5080087;28;20020;-75
2024/01/29 03:45:52;;;;;;;1.27;0.80;;;;;;;;;;5075476;28;20021;-75
2024/01/29 03:48:18;;;;;;;1.45;0.93;;;;;;;;;;5074690;28;20025;-75
2024/01/29 03:50:44;;;;;;;0.82;0.55;;;;;;;;;;5081255;28;20044;-75
2024/01/29 03:53:11;;;;;;;1.58;0.93;;;;;;;;;;5072675;28;20035;-76
2024/01/29 03:55:37;;;;;;;0.77;0.73;;;;;;;;;;5066287;28;20036;-76
2024/01/29 03:58:03;;;;;;;1.52;0.90;;;;;;;;;;5068165;28;20024;-76
2024/01/29 04:00:32;;;;;;;1.50;0.80;;;;;;;;;;5066086;28;20029;-77
2024/01/29 04:02:59;;;;;;;1.85;0.73;;;;;;;;;;5066446;28;20438;-75
2024/01/29 04:05:25;;;;;;;1.00;0.90;;;;;;;;;;5066161;28;20444;-76
2024/01/29 04:07:51;;;;;;;1.35;0.70;;;;;;;;;;5062571;28;20021;-76
2024/01/29 04:10:17;;;;;;;1.83;1.17;;;;;;;;;;5068223;28;20031;-75
2024/01/29 04:12:44;;;;;;;1.30;0.60;;;;;;;;;;5069679;28;20383;-76
2024/01/29 04:15:10;;;;;;;1.00;0.82;;;;;;;;;;5065216;28;20031;-76
2024/01/29 04:17:36;;;;;;;0.82;0.45;;;;;;;;;;5065041;28;20029;-76
2024/01/29 04:20:05;;;;;;;0.93;0.77;;;;;;;;;;5067953;28;20020;-76
2024/01/29 04:22:32;;;;;;;0.60;0.60;;;;;;;;;;5064025;28;20025;-75
2024/01/29 04:24:59;;;;;;;0.85;0.70;;;;;;;;;;5063247;28;20029;-76
2024/01/29 04:27:25;;;;;;;0.57;0.45;;;;;;;;;;5065096;28;20107;-76
2024/01/29 04:29:51;;;;;;;1.00;0.50;;;;;;;;;;5066874;28;20369;-77
2024/01/29 04:32:17;;;;;;;1.65;1.08;;;;;;;;;;5064870;28;20025;-75
2024/01/29 04:34:44;;;;;;;1.23;0.88;;;;;;;;;;5065804;28;20029;-75
2024/01/29 04:37:10;;;;;;;0.90;0.52;;;;;;;;;;5069815;28;20023;-76
2024/01/29 04:39:39;;;;;;;1.08;0.63;;;;;;;;;;5080973;28;20028;-77
2024/01/29 04:42:06;;;;;;;0.93;0.50;;;;;;;;;;5068779;28;20070;-75
2024/01/29 04:44:32;;;;;;;1.63;0.70;;;;;;;;;;5072544;28;20105;-76
2024/01/29 04:46:59;;;;;;;0.63;0.47;;;;;;;;;;5069212;28;20035;-76
2024/01/29 04:49:25;;;;;;;0.73;0.40;;;;;;;;;;5073808;28;20024;-79
2024/01/29 04:51:51;;;;;;;1.02;0.45;;;;;;;;;;5073418;28;20056;-77
2024/01/29 04:54:20;;;;;;;1.80;0.45;;;;;;;;;;5062730;28;20478;-76
2024/01/29 04:56:46;;;;;;;1.10;0.60;;;;;;;;;;5071612;28;20035;-75
2024/01/29 04:59:12;;;;;;;0.70;0.40;;;;;;;;;;5072424;28;20106;-76
2024/01/29 05:01:38;;;;;;;0.57;0.40;;;;;;;;;;5067605;28;20108;-76
2024/01/29 05:04:04;;;;;;;0.60;0.47;;;;;;;;;;5065982;28;20029;-75
2024/01/29 05:06:30;;;;;;;0.98;0.88;;;;;;;;;;5073262;28;20055;-75
2024/01/29 05:08:56;;;;;;;0.60;0.40;;;;;;;;;;5073562;28;20020;-76
2024/01/29 05:11:23;;;;;;;0.63;0.40;;;;;;;;;;5065748;28;20124;-75
2024/01/29 05:13:49;;;;;;;0.47;0.38;;;;;;;;;;5087623;28;20048;-75
2024/01/29 05:16:15;;;;;;;0.47;0.40;;;;;;;;;;5091445;28;20033;-76
2024/01/29 05:18:42;;;;;;;1.10;0.70;;;;;;;;;;5071289;28;20104;-76
2024/01/29 05:21:08;;;;;;;0.85;0.55;;;;;;;;;;5074653;28;20368;-76
2024/01/29 05:23:34;;;;;;;0.50;0.50;;;;;;;;;;5067687;28;20021;-77
2024/01/29 05:26:00;;;;;;;0.70;0.68;;;;;;;;;;5080328;28;20032;-76
2024/01/29 05:28:26;;;;;;;0.65;0.50;;;;;;;;;;5073256;28;20031;-76
2024/01/29 05:30:52;;;;;;;0.57;0.50;;;;;;;;;;5073509;28;20024;-76
2024/01/29 05:33:18;;;;;;;0.68;0.50;;;;;;;;;;5082649;28;20040;-77
2024/01/29 05:35:45;;;;;;;1.13;0.50;;;;;;;;;;5079271;28;20024;-75
2024/01/29 05:38:11;;;;;;;1.30;0.80;;;;;;;;;;5068749;28;20028;-76
2024/01/29 05:40:37;;;;;;;0.40;0.35;;;;;;;;;;5095298;28;20046;-76
2024/01/29 05:43:03;;;;;;;0.52;0.50;;;;;;;;;;5111804;28;20023;-76
2024/01/29 05:45:29;;;;;;;0.40;0.22;;;;;;;;;;5107237;28;20075;-77
2024/01/29 05:47:55;;;;;;;0.68;0.57;;;;;;;;;;5089708;28;20066;-76
2024/01/29 05:50:21;;;;;;;1.55;0.82;;;;;;;;;;5093167;28;20032;-75
2024/01/29 05:52:47;;;;;;;0.63;0.52;;;;;;;;;;5077745;28;20028;-75
2024/01/29 05:55:13;;;;;;;1.38;0.60;;;;;;;;;;5075724;28;20013;-76
2024/01/29 05:57:39;;;;;;;0.65;0.47;;;;;;;;;;5079975;28;20020;-77
2024/01/29 06:00:12;;;;;;;0.77;0.57;;;;;;;;;;5096406;28;20024;-78
2024/01/29 06:02:49;;;;;;;0.93;0.68;;;;;;;;;;5092168;28;20043;-78
2024/01/29 06:05:16;;;;;;;0.95;0.60;;;;;;;;;;5089939;28;20040;-75
2024/01/29 06:07:42;;;;;;;0.55;0.55;;;;;;;;;;5080508;28;20028;-77
2024/01/29 06:10:10;;;;;;;0.98;0.70;;;;;;;;;;5095731;27;20027;-78
2024/01/29 06:12:36;;;;;;;0.95;0.57;;;;;;;;;;5088545;28;20772;-77
2024/01/29 06:15:03;;;;;;;0.90;0.52;;;;;;;;;;5089783;28;20013;-78
2024/01/29 06:17:29;;;;;;;0.65;0.50;;;;;;;;;;5093708;28;20019;-78
2024/01/29 06:19:55;;;;;;;0.43;0.40;;;;;;;;;;5095543;28;20024;-77
2024/01/29 06:22:22;;;;;;;0.57;0.50;;;;;;;;;;5113239;28;20027;-78
2024/01/29 06:24:48;;;;;;;0.45;0.45;;;;;;;;;;5107932;28;20035;-76
2024/01/29 06:27:14;;;;;;;0.55;0.50;;;;;;;;;;5078612;28;20530;-77
2024/01/29 06:29:40;;;;;;;1.15;0.57;;;;;;;;;;5062758;28;20071;-76
2024/01/29 06:32:06;;;;;;;0.45;0.45;;;;;;;;;;5055208;28;20025;-77
2024/01/29 06:34:34;;;;;;;0.60;0.50;;;;;;;;;;5074299;28;20017;-77
2024/01/29 06:37:00;;;;;;;1.33;0.75;;;;;;;;;;5075791;28;20033;-76
2024/01/29 06:39:26;;;;;;;0.70;0.57;;;;;;;;;;5065321;28;20514;-76
2024/01/29 06:41:52;;;;;;;0.50;0.50;;;;;;;;;;5073565;28;20155;-76
2024/01/29 06:44:18;;;;;;;0.60;0.50;;;;;;;;;;5074689;28;20109;-77
2024/01/29 06:46:44;;;;;;;1.23;0.52;;;;;;;;;;5090691;28;20028;-77
2024/01/29 06:49:25;;;;;;;0.88;0.45;;;;;;;;;;5080338;28;20063;-77
2024/01/29 06:51:51;;;;;;;1.00;0.38;;;;;;;;;;5086847;28;20041;-77
2024/01/29 06:54:17;;;;;;;0.65;0.65;;;;;;;;;;5081975;28;20377;-76
2024/01/29 06:56:43;;;;;;;0.73;0.50;;;;;;;;;;5088281;28;20506;-77
2024/01/29 06:59:10;;;;;;;0.80;0.40;;;;;;;;;;5082781;28;20024;-77
2024/01/29 07:01:37;;;;;;;0.40;0.40;;;;;;;;;;5077076;28;20033;-76
2024/01/29 07:04:03;;;;;;;1.20;0.75;;;;;;;;;;5084869;28;20436;-77
2024/01/29 07:06:30;;;;;;;1.35;0.50;;;;;;;;;;5082106;28;20020;-76
2024/01/29 07:08:56;;;;;;;1.67;0.70;;;;;;;;;;5080704;28;20394;-76
2024/01/29 07:11:22;;;;;;;1.45;0.70;;;;;;;;;;5074181;28;20500;-75
2024/01/29 07:13:48;;;;;;;1.50;0.70;;;;;;;;;;5089550;28;20379;-74
2024/01/29 07:16:14;;;;;;;1.15;0.60;;;;;;;;;;5091162;28;20038;-75
2024/01/29 07:18:40;;;;;;;0.85;0.63;;;;;;;;;;5085171;28;20025;-76
2024/01/29 07:21:06;;;;;;;0.82;0.68;;;;;;;;;;5084526;28;20108;-76
2024/01/29 07:23:33;;;;;;;0.85;0.70;;;;;;;;;;5077954;28;20082;-76
2024/01/29 07:25:59;;;;;;;1.80;0.80;;;;;;;;;;5085831;28;20026;-76
2024/01/29 07:28:25;;;;;;;0.40;0.40;;;;;;;;;;5071442;28;20462;-78
2024/01/29 07:30:51;;;;;;;0.80;0.52;;;;;;;;;;5062649;28;20039;-78
2024/01/29 07:33:17;;;;;;;0.95;0.50;;;;;;;;;;5075404;28;20436;-78
2024/01/29 07:35:45;;;;;;;1.02;0.63;;;;;;;;;;5078568;28;20032;-77
2024/01/29 07:38:11;;;;;;;0.95;0.50;;;;;;;;;;5075835;28;20100;-77
2024/01/29 07:40:38;;;;;;;0.50;0.50;;;;;;;;;;5071598;28;20052;-76
2024/01/29 07:43:04;;;;;;;0.75;0.60;;;;;;;;;;5083024;28;20099;-77
2024/01/29 07:45:30;;;;;;;0.93;0.60;;;;;;;;;;5081725;28;20037;-77
2024/01/29 07:47:59;;;;;;;0.65;0.55;;;;;;;;;;5080784;28;20107;-77
2024/01/29 07:50:25;;;;;;;0.85;0.40;;;;;;;;;;5079954;28;20043;-76
2024/01/29 07:52:51;;;;;;;0.95;0.63;;;;;;;;;;5084668;28;20047;-77
2024/01/29 07:55:17;;;;;;;0.82;0.73;;;;;;;;;;5078491;28;20017;-76
2024/01/29 07:57:43;;;;;;;0.80;0.80;;;;;;;;;;5075560;28;20017;-77
2024/01/29 08:00:10;;;;;;;1.02;0.70;;;;;;;;;;5074488;28;20025;-78
2024/01/29 08:02:36;;;;;;;0.63;0.40;;;;;;;;;;5075638;28;20032;-79
2024/01/29 08:05:02;;;;;;;1.10;0.50;;;;;;;;;;5075939;28;20028;-78
2024/01/29 08:07:28;;;;;;;1.45;0.70;;;;;;;;;;5069907;28;20092;-76
2024/01/29 08:09:55;;;;;;;1.00;0.90;;;;;;;;;;5074655;28;20028;-76
2024/01/29 08:12:21;;;;;;;0.98;0.95;;;;;;;;;;5079398;28;20029;-77
2024/01/29 08:14:48;;;;;;;0.77;0.70;;;;;;;;;;5083416;28;20052;-77
2024/01/29 08:17:15;;;;;;;0.90;0.55;;;;;;;;;;5082277;28;20055;-77
2024/01/29 08:19:41;;;;;;;0.60;0.60;;;;;;;;;;5068344;28;20021;-77
2024/01/29 08:22:08;;;;;;;1.13;0.68;;;;;;;;;;5075538;28;20020;-77
2024/01/29 08:24:34;;;;;;;0.52;0.45;;;;;;;;;;5071697;28;20431;-77
2024/01/29 08:27:00;;;;;;;1.45;0.82;;;;;;;;;;5076213;28;20028;-77
2024/01/29 08:29:26;;;;;;;0.50;0.50;;;;;;;;;;5074562;28;20491;-77
2024/01/29 08:31:52;;;;;;;0.80;0.70;;;;;;;;;;5073420;28;20037;-76
2024/01/29 08:34:19;;;;;;;0.65;0.45;;;;;;;;;;5073952;28;20467;-77
2024/01/29 08:36:45;;;;;;;0.63;0.40;;;;;;;;;;5066153;28;20032;-77
2024/01/29 08:39:11;;;;;;;0.50;0.50;;;;;;;;;;5068876;28;20024;-77
2024/01/29 08:41:37;;;;;;;0.80;0.60;;;;;;;;;;5064277;28;20028;-76
2024/01/29 08:44:04;;;;;;;0.73;0.60;;;;;;;;;;5093069;28;20036;-77
2024/01/29 08:46:32;;;;;;;0.65;0.60;;;;;;;;;;5083317;28;20029;-76
2024/01/29 08:48:58;;;;;;;0.43;0.43;;;;;;;;;;5069839;28;20021;-76
2024/01/29 08:51:24;;;;;;;1.02;0.70;;;;;;;;;;5071798;28;20032;-77
2024/01/29 08:53:50;;;;;;;0.30;0.30;;;;;;;;;;5075516;28;20020;-77
2024/01/29 08:56:20;;;;;;;0.60;0.20;;;;;;;;;;5069878;28;20027;-77
2024/01/29 08:58:46;;;;;;;0.35;0.35;;;;;;;;;;5075662;28;20111;-78
2024/01/29 09:01:12;;;;;;;0.50;0.47;;;;;;;;;;5066686;28;20024;-77
2024/01/29 09:03:38;;;;;;;1.27;0.63;;;;;;;;;;5074487;28;20044;-77
2024/01/29 09:06:04;;;;;;;1.13;0.70;;;;;;;;;;5075330;28;20099;-77
2024/01/29 09:08:31;;;;;;;0.90;0.70;;;;;;;;;;5074338;28;20029;-77
2024/01/29 09:10:57;;;;;;;0.30;0.30;;;;;;;;;;5074249;28;20036;-77
2024/01/29 09:13:23;;;;;;;0.55;0.50;;;;;;;;;;5091374;28;20046;-77
2024/01/29 09:15:49;;;;;;;0.68;0.50;;;;;;;;;;5081732;28;20027;-77
2024/01/29 09:18:15;;;;;;;0.55;0.43;;;;;;;;;;5074001;28;20035;-76
2024/01/29 09:20:41;;;;;;;1.10;0.57;;;;;;;;;;5075026;28;20049;-78
2024/01/29 09:23:08;;;;;;;0.95;0.77;;;;;;;;;;5075658;28;20032;-77
2024/01/29 09:25:34;;;;;;;0.85;0.60;;;;;;;;;;5075106;28;20028;-77
2024/01/29 09:28:01;;;;;;;0.88;0.70;;;;;;;;;;5075719;28;20038;-77
2024/01/29 09:30:27;;;;;;;0.68;0.47;;;;;;;;;;5075713;28;20387;-78
2024/01/29 09:32:53;;;;;;;0.52;0.50;;;;;;;;;;5073211;28;20134;-79
2024/01/29 09:35:19;;;;;;;1.85;0.60;;;;;;;;;;5062658;28;20096;-78
2024/01/29 09:37:45;;;;;;;0.43;0.30;;;;;;;;;;5074626;28;20078;-78
2024/01/29 09:40:13;;;;;;;0.95;0.63;;;;;;;;;;5075569;28;20025;-78
2024/01/29 09:42:40;;;;;;;0.73;0.47;;;;;;;;;;5077813;28;20066;-77
2024/01/29 09:45:08;;;;;;;1.15;0.63;;;;;;;;;;5091741;28;20772;-77
2024/01/29 09:47:36;;;;;;;0.77;0.70;;;;;;;;;;5074430;28;20028;-76
2024/01/29 09:50:02;;;;;;;1.02;0.80;;;;;;;;;;5074730;28;20107;-78
2024/01/29 09:52:28;;;;;;;0.98;0.75;;;;;;;;;;5073825;28;20036;-78
2024/01/29 09:54:55;;;;;;;1.20;0.95;;;;;;;;;;5073759;28;20021;-76
2024/01/29 09:57:21;;;;;;;0.90;0.65;;;;;;;;;;5082471;28;20035;-77
2024/01/29 09:59:47;;;;;;;1.42;0.70;;;;;;;;;;5070793;28;20025;-78
2024/01/29 10:02:14;;;;;;;0.65;0.65;;;;;;;;;;5079374;28;20025;-76
2024/01/29 10:04:41;;;;;;;1.13;0.85;;;;;;;;;;5079724;28;20086;-74
2024/01/29 10:07:07;;;;;;;0.80;0.80;;;;;;;;;;5072528;28;20028;-75
2024/01/29 10:09:33;;;;;;;1.70;1.00;;;;;;;;;;5079595;28;20021;-77
2024/01/29 10:11:59;;;;;;;0.73;0.63;;;;;;;;;;5084823;28;20039;-76
2024/01/29 10:14:27;;;;;;;0.95;0.82;;;;;;;;;;5080994;28;20395;-76
2024/01/29 10:16:53;;;;;;;1.13;0.75;;;;;;;;;;5077075;28;20025;-76
2024/01/29 10:19:19;;;;;;;0.82;0.70;;;;;;;;;;5082054;28;20028;-77
2024/01/29 10:21:47;;;;;;;1.55;0.50;;;;;;;;;;5074275;28;20498;-78
2024/01/29 10:24:14;;;;;;;1.05;0.80;;;;;;;;;;5073150;28;20025;-76
2024/01/29 10:26:41;;;;;;;0.93;0.50;;;;;;;;;;5079061;28;20031;-77
2024/01/29 10:29:09;;;;;;;1.08;0.60;;;;;;;;;;5079770;28;20028;-75
2024/01/29 10:31:35;;;;;;;0.90;0.70;;;;;;;;;;5062178;28;20116;-77
2024/01/29 10:34:02;;;;;;;0.88;0.65;;;;;;;;;;5070031;28;20055;-77
2024/01/29 10:36:29;;;;;;;1.10;0.90;;;;;;;;;;5062034;28;20476;-76
2024/01/29 10:38:55;;;;;;;0.70;0.60;;;;;;;;;;5081005;28;20072;-78
2024/01/29 10:41:21;;;;;;;2.53;0.70;;;;;;;;;;5073037;28;20123;-76
2024/01/29 10:43:48;;;;;;;1.27;0.55;;;;;;;;;;5070476;28;20029;-78
2024/01/29 10:46:23;;;;;;;0.93;0.70;;;;;;;;;;5076602;28;20024;-78
2024/01/29 10:48:51;;;;;;;0.47;0.47;;;;;;;;;;5075958;28;20025;-78
2024/01/29 10:51:18;;;;;;;0.57;0.52;;;;;;;;;;5072292;28;20023;-77
2024/01/29 10:53:45;;;;;;;1.00;0.90;;;;;;;;;;5071000;28;20029;-77
2024/01/29 10:56:12;;;;;;;0.85;0.70;;;;;;;;;;5070572;28;20029;-78
2024/01/29 10:58:39;;;;;;;0.88;0.60;;;;;;;;;;5071575;28;20025;-77
2024/01/29 11:01:06;;;;;;;0.80;0.75;;;;;;;;;;5074837;28;20032;-78
2024/01/29 11:03:33;;;;;;;0.73;0.73;;;;;;;;;;5072192;28;20070;-81
2024/01/29 11:06:08;;;;;;;0.98;0.88;;;;;;;;;;5070195;28;20457;-79
2024/01/29 11:08:36;;;;;;;1.92;0.82;;;;;;;;;;5065667;28;20039;-78
2024/01/29 11:11:03;;;;;;;3.45;1.00;;;;;;;;;;5075607;28;20028;-79
2024/01/29 11:13:30;;;;;;;0.77;0.70;;;;;;;;;;5083192;28;20088;-78
2024/01/29 11:15:56;;;;;;;1.98;1.00;;;;;;;;;;5070338;28;20017;-75
2024/01/29 11:18:23;;;;;;;1.17;0.80;;;;;;;;;;5069655;28;20029;-77
2024/01/29 11:20:52;;;;;;;2.05;1.27;;;;;;;;;;5069089;28;20044;-78
2024/01/29 11:23:22;;;;;;;3.47;1.02;;;;;;;;;;5077772;28;20025;-79
2024/01/29 11:25:50;;;;;;;1.25;0.98;;;;;;;;;;5076309;28;20025;-80
2024/01/29 11:28:16;;;;;;;1.75;0.70;;;;;;;;;;5069457;28;20021;-79
2024/01/29 11:30:49;;;;;;;2.60;1.00;;;;;;;;;;5066672;28;20032;-78
2024/01/29 11:33:16;;;;;;;1.52;0.90;;;;;;;;;;5068072;28;20025;-78
2024/01/29 11:35:43;;;;;;;2.08;1.23;;;;;;;;;;5064976;28;20024;-79
2024/01/29 11:38:14;;;;;;;1.10;0.77;;;;;;;;;;5064720;28;20044;-79
2024/01/29 11:40:41;;;;;;;1.23;0.80;;;;;;;;;;5077139;28;20016;-77
2024/01/29 11:43:10;;;;;;;1.08;0.95;;;;;;;;;;5095536;28;20208;-77
2024/01/29 11:45:37;;;;;;;2.25;1.23;;;;;;;;;;5089891;28;20039;-79
2024/01/29 11:48:08;;;;;;;2.92;1.05;;;;;;;;;;5069253;28;20021;-77
2024/01/29 11:50:35;;;;;;;0.95;0.80;;;;;;;;;;5080398;28;20016;-79
2024/01/29 11:53:01;;;;;;;1.00;0.80;;;;;;;;;;5081814;28;20030;-80
2024/01/29 11:55:27;;;;;;;1.58;1.00;;;;;;;;;;5071844;28;20063;-78
2024/01/29 11:57:53;;;;;;;2.28;1.00;;;;;;;;;;5077159;28;20024;-76
2024/01/29 12:00:19;;;;;;;3.08;1.15;;;;;;;;;;5076177;28;20020;-77
2024/01/29 12:02:50;;;;;;;4.45;1.65;;;;;;;;;;5065788;28;20107;-78
2024/01/29 12:05:16;;;;;;;0.98;0.88;;;;;;;;;;5076228;28;20028;-78
2024/01/29 12:07:42;;;;;;;1.10;0.70;;;;;;;;;;5064325;28;20484;-76
2024/01/29 12:10:09;;;;;;;1.60;0.77;;;;;;;;;;5055908;28;20438;-78
2024/01/29 12:12:36;;;;;;;1.30;1.08;;;;;;;;;;5085883;28;20028;-77
2024/01/29 12:15:02;;;;;;;2.35;1.00;;;;;;;;;;5076371;28;20162;-77
2024/01/29 12:17:28;;;;;;;2.05;1.30;;;;;;;;;;5081406;28;20036;-77
2024/01/29 12:19:55;;;;;;;5.25;1.25;;;;;;;;;;5067599;28;20350;-78
2024/01/29 12:22:21;;;;;;;2.88;1.35;;;;;;;;;;5086617;28;20035;-78
2024/01/29 12:24:47;;;;;;;6.30;1.10;;;;;;;;;;5073314;28;20025;-78
2024/01/29 12:27:13;;;;;;;2.00;1.08;;;;;;;;;;5073037;28;20076;-78
2024/01/29 12:29:40;;;;;;;4.03;1.13;;;;;;;;;;5076608;28;20024;-77
2024/01/29 12:32:11;;;;;;;2.75;0.98;;;;;;;;;;5076317;28;20028;-77
2024/01/29 12:34:45;;;;;;;2.55;1.13;;;;;;;;;;5069054;28;20021;-78
2024/01/29 12:37:21;;;;;;;4.70;1.33;;;;;;;;;;5076772;28;20025;-77
2024/01/29 12:39:51;;;;;;;3.08;1.17;;;;;;;;;;5070574;28;20035;-78
2024/01/29 12:42:17;;;;;;;3.58;0.88;;;;;;;;;;5085550;28;20039;-79
2024/01/29 12:44:44;;;;;;;1.63;1.00;;;;;;;;;;5073913;28;20024;-77
2024/01/29 12:47:13;;;;;;;1.60;1.00;;;;;;;;;;5066094;28;20025;-77
2024/01/29 12:49:40;;;;;;;1.73;1.02;;;;;;;;;;5068993;28;20029;-77
2024/01/29 12:52:06;;;;;;;3.03;1.27;;;;;;;;;;5062496;28;20025;-78
2024/01/29 12:54:32;;;;;;;2.92;1.38;;;;;;;;;;5071398;28;20546;-77
2024/01/29 12:56:59;;;;;;;4.20;1.95;;;;;;;;;;5074361;28;20020;-77
2024/01/29 12:59:26;;;;;;;3.63;1.20;;;;;;;;;;5094630;28;20036;-78
2024/01/29 13:01:57;;;;;;;7.10;1.55;;;;;;;;;;5096054;28;20040;-77
2024/01/29 13:04:23;;;;;;;1.20;1.00;;;;;;;;;;5086143;28;20023;-77
2024/01/29 13:06:49;;;;;;;1.35;1.02;;;;;;;;;;5089412;28;20005;-77
2024/01/29 13:09:16;;;;;;;1.30;1.02;;;;;;;;;;5102003;28;20041;-79
2024/01/29 13:11:42;;;;;;;2.67;0.90;;;;;;;;;;5081241;28;20025;-77
2024/01/29 13:14:17;;;;;;;1.50;1.13;;;;;;;;;;5084588;28;20047;-77
2024/01/29 13:16:43;;;;;;;1.42;1.20;;;;;;;;;;5081258;28;20028;-77
2024/01/29 13:19:12;;;;;;;2.25;0.90;;;;;;;;;;5075705;28;20013;-76
2024/01/29 13:21:41;;;;;;;2.15;1.02;;;;;;;;;;5067432;28;20040;-77
2024/01/29 13:24:08;;;;;;;1.58;0.80;;;;;;;;;;5079948;28;20040;-78
2024/01/29 13:26:36;;;;;;;3.28;1.23;;;;;;;;;;5088384;28;20031;-78
2024/01/29 13:29:03;;;;;;;0.88;0.88;;;;;;;;;;5087235;28;20024;-77
2024/01/29 13:31:29;;;;;;;1.52;1.17;;;;;;;;;;5088534;28;20032;-77
2024/01/29 13:33:56;;;;;;;1.45;1.05;;;;;;;;;;5079745;28;20020;-77
2024/01/29 13:36:22;;;;;;;1.25;1.00;;;;;;;;;;5077738;28;20061;-78
2024/01/29 13:38:48;;;;;;;0.60;0.60;;;;;;;;;;5075834;28;20072;-77
2024/01/29 13:41:14;;;;;;;0.70;0.57;;;;;;;;;;5075377;28;20417;-78
2024/01/29 13:43:40;;;;;;;0.73;0.73;;;;;;;;;;5080365;28;20024;-78
2024/01/29 13:46:06;;;;;;;0.60;0.60;;;;;;;;;;5080376;28;20021;-79
2024/01/29 13:48:33;;;;;;;0.65;0.65;;;;;;;;;;5075340;28;20024;-77
2024/01/29 13:50:59;;;;;;;0.77;0.73;;;;;;;;;;5072492;28;20013;-78
2024/01/29 13:53:26;;;;;;;0.80;0.80;;;;;;;;;;5073830;28;20082;-77
2024/01/29 13:55:52;;;;;;;0.75;0.75;;;;;;;;;;5072330;28;20029;-77
2024/01/29 13:58:18;;;;;;;2.75;1.00;;;;;;;;;;5067217;28;20028;-77
2024/01/29 14:00:44;;;;;;;1.30;0.82;;;;;;;;;;5074813;28;20503;-77
2024/01/29 14:03:10;;;;;;;1.05;0.95;;;;;;;;;;5074728;28;20020;-77
2024/01/29 14:05:36;;;;;;;1.92;0.80;;;;;;;;;;5070639;28;20517;-78
2024/01/29 14:08:03;;;;;;;1.00;0.88;;;;;;;;;;5071133;28;20364;-76
2024/01/29 14:10:34;;;;;;;1.00;0.82;;;;;;;;;;5081488;28;20051;-81
2024/01/29 14:13:00;;;;;;;1.60;1.00;;;;;;;;;;5070510;28;20017;-75
2024/01/29 14:15:26;;;;;;;1.05;0.90;;;;;;;;;;5086360;28;20017;-78
2024/01/29 14:17:52;;;;;;;2.05;0.82;;;;;;;;;;5067583;28;20043;-78
2024/01/29 14:20:18;;;;;;;1.23;0.82;;;;;;;;;;5064460;28;20021;-77
2024/01/29 14:22:44;;;;;;;0.80;0.70;;;;;;;;;;5064940;28;20100;-78
2024/01/29 14:25:11;;;;;;;1.60;1.05;;;;;;;;;;5071185;28;20391;-78
2024/01/29 14:27:37;;;;;;;1.92;0.80;;;;;;;;;;5071647;28;20086;-79
2024/01/29 14:30:04;;;;;;;0.85;0.70;;;;;;;;;;5065965;28;20480;-78
2024/01/29 14:32:31;;;;;;;0.60;0.60;;;;;;;;;;5070455;28;20044;-77
2024/01/29 14:34:57;;;;;;;1.25;0.70;;;;;;;;;;5067102;28;20032;-77
2024/01/29 14:37:23;;;;;;;2.10;0.70;;;;;;;;;;5062043;28;20100;-78
2024/01/29 14:39:49;;;;;;;1.13;1.08;;;;;;;;;;5065620;28;20024;-79